sensor_id;sensor_type;location;lat;lon;timestamp;pressure;altitude;pressure_sealevel;temperature;humidity
45113;BME280;30873;53.908;27.576;2023-03-22T00:03:32;1015.3;;;10.3;58.5
45113;BME280;30873;53.908;27.576;2023-03-22T00:08:42;1015.3;;;10.3;58.7
45113;BME280;30873;53.908;27.576;2023-03-22T00:14:14;1015.3;;;10.2;59
45113;BME280;30873;53.908;27.576;2023-03-22T00:18:52;1015.3;;;10.1;59.6
45113;BME280;30873;53.908;27.576;2023-03-22T00:24:26;1015.4;;;9.9;60.4
45113;BME280;30873;53.908;27.576;2023-03-22T00:29:08;1015.4;;;9.9;60.9
45113;BME280;30873;53.908;27.576;2023-03-22T00:33:42;1015.3;;;10;60.8
45113;BME280;30873;53.908;27.576;2023-03-22T00:39:12;1015.3;;;10;60.8
45113;BME280;30873;53.908;27.576;2023-03-22T00:44:10;1015.3;;;10;61
45113;BME280;30873;53.908;27.576;2023-03-22T00:49:26;1015.3;;;10.1;61
45113;BME280;30873;53.908;27.576;2023-03-22T00:53:44;1015.3;;;10.1;61.1
45113;BME280;30873;53.908;27.576;2023-03-22T00:58:32;1015.4;;;10;61.3
45113;BME280;30873;53.908;27.576;2023-03-22T01:04:14;1015.4;;;10;61.7
45113;BME280;30873;53.908;27.576;2023-03-22T01:08:52;1015.5;;;9.9;61.9
45113;BME280;30873;53.908;27.576;2023-03-22T01:14:26;1015.5;;;9.9;62.2
45113;BME280;30873;53.908;27.576;2023-03-22T01:18:56;1015.5;;;9.9;62.4
45113;BME280;30873;53.908;27.576;2023-03-22T01:23:44;1015.5;;;9.8;62.5
45113;BME280;30873;53.908;27.576;2023-03-22T01:28:48;1015.5;;;9.8;62.8
45113;BME280;30873;53.908;27.576;2023-03-22T01:33:52;1015.5;;;9.7;62.9
45113;BME280;30873;53.908;27.576;2023-03-22T01:38:54;1015.5;;;9.7;63.2
45113;BME280;30873;53.908;27.576;2023-03-22T01:44:15;1015.6;;;9.6;63.5
45113;BME280;30873;53.908;27.576;2023-03-22T01:49:10;1015.6;;;9.5;64
45113;BME280;30873;53.908;27.576;2023-03-22T01:54:27;1015.5;;;9.6;64
45113;BME280;30873;53.908;27.576;2023-03-22T01:58:52;1015.4;;;9.6;64
45113;BME280;30873;53.908;27.576;2023-03-22T02:04:10;1015.4;;;9.7;63.8
45113;BME280;30873;53.908;27.576;2023-03-22T02:08:56;1015.4;;;9.7;63.6
45113;BME280;30873;53.908;27.576;2023-03-22T02:14:15;1015.4;;;9.7;63.7
45113;BME280;30873;53.908;27.576;2023-03-22T02:19:33;1015.4;;;9.7;63.6
45113;BME280;30873;53.908;27.576;2023-03-22T02:24:12;1015.4;;;9.6;63.2
45113;BME280;30873;53.908;27.576;2023-03-22T02:29:10;1015.4;;;9.6;63.4
45113;BME280;30873;53.908;27.576;2023-03-22T02:33:46;1015.5;;;9.6;63.3
45113;BME280;30873;53.908;27.576;2023-03-22T02:39:03;1015.5;;;9.6;63.4
45113;BME280;30873;53.908;27.576;2023-03-22T02:44:29;1015.5;;;9.5;63.4
45113;BME280;30873;53.908;27.576;2023-03-22T02:48:55;1015.6;;;9.3;64
45113;BME280;30873;53.908;27.576;2023-03-22T02:54:02;1015.6;;;9.2;64.4
45113;BME280;30873;53.908;27.576;2023-03-22T02:59:04;1015.6;;;9.2;64.7
45113;BME280;30873;53.908;27.576;2023-03-22T03:04:28;1015.6;;;9.2;64.9
45113;BME280;30873;53.908;27.576;2023-03-22T03:09:26;1015.7;;;9.3;65
45113;BME280;30873;53.908;27.576;2023-03-22T03:13:52;1015.7;;;9.3;64.9
45113;BME280;30873;53.908;27.576;2023-03-22T03:18:39;1015.7;;;9.2;65
45113;BME280;30873;53.908;27.576;2023-03-22T03:23:44;1015.7;;;9.3;65.1
45113;BME280;30873;53.908;27.576;2023-03-22T03:29:10;1015.7;;;9.3;65
45113;BME280;30873;53.908;27.576;2023-03-22T03:34:26;1015.7;;;9.4;64.8
45113;BME280;30873;53.908;27.576;2023-03-22T03:38:52;1015.8;;;9.4;64.7
45113;BME280;30873;53.908;27.576;2023-03-22T03:44:10;1015.9;;;9.3;64.5
45113;BME280;30873;53.908;27.576;2023-03-22T03:48:43;1015.9;;;9.2;64.6
45113;BME280;30873;53.908;27.576;2023-03-22T03:54:10;1015.9;;;9.2;64.6
45113;BME280;30873;53.908;27.576;2023-03-22T03:59:26;1015.9;;;9.3;64.5
45113;BME280;30873;53.908;27.576;2023-03-22T04:03:42;1015.9;;;9.3;64.3
45113;BME280;30873;53.908;27.576;2023-03-22T04:09:26;1015.9;;;9.3;64
45113;BME280;30873;53.908;27.576;2023-03-22T04:13:46;1016;;;9.4;63.8
45113;BME280;30873;53.908;27.576;2023-03-22T04:19:10;1016;;;9.3;63.6
45113;BME280;30873;53.908;27.576;2023-03-22T04:23:50;1016;;;9.3;63.6
45113;BME280;30873;53.908;27.576;2023-03-22T04:29:08;1016;;;9.2;63.7
45113;BME280;30873;53.908;27.576;2023-03-22T04:34:00;1016;;;9.3;63.6
45113;BME280;30873;53.908;27.576;2023-03-22T04:38:42;1015.9;;;9.1;63.1
45113;BME280;30873;53.908;27.576;2023-03-22T04:43:52;1016;;;9.1;63.3
45113;BME280;30873;53.908;27.576;2023-03-22T04:49:14;1016;;;9.1;63.3
45113;BME280;30873;53.908;27.576;2023-03-22T04:53:50;1016.1;;;9.2;63.2
45113;BME280;30873;53.908;27.576;2023-03-22T04:59:24;1016.1;;;9.4;62.8
45113;BME280;30873;53.908;27.576;2023-03-22T05:03:32;1016.1;;;9.5;62.1
45113;BME280;30873;53.908;27.576;2023-03-22T05:09:08;1016.1;;;9.5;61.1
45113;BME280;30873;53.908;27.576;2023-03-22T05:14:24;1016.1;;;9.5;60.7
45113;BME280;30873;53.908;27.576;2023-03-22T05:18:40;1016.1;;;9.8;60.6
45113;BME280;30873;53.908;27.576;2023-03-22T05:23:42;1016.1;;;9.9;59.9
45113;BME280;30873;53.908;27.576;2023-03-22T05:28:46;1016.1;;;9.9;59.9
45113;BME280;30873;53.908;27.576;2023-03-22T05:34:08;1016;;;9.8;59.7
45113;BME280;30873;53.908;27.576;2023-03-22T05:39:04;1016;;;9.9;59.4
45113;BME280;30873;53.908;27.576;2023-03-22T05:43:32;1016.1;;;9.7;59.1
45113;BME280;30873;53.908;27.576;2023-03-22T05:49:24;1016.2;;;9.6;59.3
45113;BME280;30873;53.908;27.576;2023-03-22T05:53:32;1016.3;;;9.5;59.3
45113;BME280;30873;53.908;27.576;2023-03-22T05:58:54;1016.3;;;9.6;59.3
45113;BME280;30873;53.908;27.576;2023-03-22T06:04:24;1016.4;;;9.7;59.1
45113;BME280;30873;53.908;27.576;2023-03-22T06:08:40;1016.4;;;9.7;58.8
45113;BME280;30873;53.908;27.576;2023-03-22T06:14:24;1016.5;;;9.8;58.6
45113;BME280;30873;53.908;27.576;2023-03-22T06:18:46;1016.5;;;9.8;58.4
45113;BME280;30873;53.908;27.576;2023-03-22T06:24:10;1016.5;;;9.9;58.2
45113;BME280;30873;53.908;27.576;2023-03-22T06:29:26;1016.6;;;9.9;57.9
45113;BME280;30873;53.908;27.576;2023-03-22T06:33:48;1016.6;;;10;57.3
45113;BME280;30873;53.908;27.576;2023-03-22T06:39:24;1016.6;;;10.2;57.2
45113;BME280;30873;53.908;27.576;2023-03-22T06:43:32;1016.6;;;10.4;56.5
45113;BME280;30873;53.908;27.576;2023-03-22T06:49:06;1016.6;;;10.4;55.8
45113;BME280;30873;53.908;27.576;2023-03-22T06:54:24;1016.7;;;10.4;55.5
45113;BME280;30873;53.908;27.576;2023-03-22T06:58:50;1016.7;;;10.4;55.3
45113;BME280;30873;53.908;27.576;2023-03-22T07:33:32;1016.6;;;10.9;53
45113;BME280;30873;53.908;27.576;2023-03-22T07:39:08;1016.6;;;11;52.4
45113;BME280;30873;53.908;27.576;2023-03-22T07:44:26;1016.6;;;10.9;52.6
45113;BME280;30873;53.908;27.576;2023-03-22T07:48:32;1016.5;;;11.2;52.4
45113;BME280;30873;53.908;27.576;2023-03-22T07:54:24;1016.5;;;11.2;52.2
45113;BME280;30873;53.908;27.576;2023-03-22T07:58:46;1016.6;;;11.2;52
45113;BME280;30873;53.908;27.576;2023-03-22T08:04:24;1016.6;;;11.2;53.5
45113;BME280;30873;53.908;27.576;2023-03-22T08:09:22;1016.6;;;11.2;54.5
45113;BME280;30873;53.908;27.576;2023-03-22T08:13:50;1016.6;;;11.1;54.9
45113;BME280;30873;53.908;27.576;2023-03-22T08:19:22;1016.7;;;11.1;55
45113;BME280;30873;53.908;27.576;2023-03-22T08:23:32;1016.7;;;11.2;55.9
45113;BME280;30873;53.908;27.576;2023-03-22T08:29:06;1016.7;;;11.2;56
45113;BME280;30873;53.908;27.576;2023-03-22T08:34:26;1016.7;;;11.5;55.6
45113;BME280;30873;53.908;27.576;2023-03-22T08:38:48;1016.6;;;11.5;55.4
45113;BME280;30873;53.908;27.576;2023-03-22T08:44:24;1016.6;;;11.2;56.3
45113;BME280;30873;53.908;27.576;2023-03-22T08:48:32;1016.6;;;11.5;56
45113;BME280;30873;53.908;27.576;2023-03-22T08:54:00;1016.5;;;11.7;55.3
45113;BME280;30873;53.908;27.576;2023-03-22T08:59:24;1016.4;;;12.1;54.8
45113;BME280;30873;53.908;27.576;2023-03-22T09:03:52;1016.4;;;12.5;53.7
45113;BME280;30873;53.908;27.576;2023-03-22T09:09:24;1016.3;;;12.7;52.7
45113;BME280;30873;53.908;27.576;2023-03-22T09:13:42;1016.3;;;13;52
45113;BME280;30873;53.908;27.576;2023-03-22T09:19:06;1016.3;;;13.4;51.2
45113;BME280;30873;53.908;27.576;2023-03-22T09:24:26;1016.3;;;13.2;51.5
45113;BME280;30873;53.908;27.576;2023-03-22T09:29:10;1016.2;;;13.2;50.7
45113;BME280;30873;53.908;27.576;2023-03-22T09:34:26;1016.2;;;13;49.5
45113;BME280;30873;53.908;27.576;2023-03-22T09:38:42;1016.1;;;12.4;50.8
45113;BME280;30873;53.908;27.576;2023-03-22T09:44:10;1016.2;;;12.3;51.6
45113;BME280;30873;53.908;27.576;2023-03-22T09:49:28;1016.2;;;12.7;50.9
45113;BME280;30873;53.908;27.576;2023-03-22T09:53:42;1016.2;;;12.9;50
45113;BME280;30873;53.908;27.576;2023-03-22T09:59:28;1016.1;;;13.3;48.4
45113;BME280;30873;53.908;27.576;2023-03-22T10:03:38;1016.1;;;14;46.9
45113;BME280;30873;53.908;27.576;2023-03-22T10:09:11;1016;;;16.5;41.9
45113;BME280;30873;53.908;27.576;2023-03-22T10:13:44;1016;;;15.7;42
45113;BME280;30873;53.908;27.576;2023-03-22T10:18:50;1016;;;15;42.5
45113;BME280;30873;53.908;27.576;2023-03-22T10:24:27;1016;;;14.3;43.6
45113;BME280;30873;53.908;27.576;2023-03-22T10:28:34;1016;;;14.3;44.1
45113;BME280;30873;53.908;27.576;2023-03-22T10:34:11;1016;;;14.3;44.3
45113;BME280;30873;53.908;27.576;2023-03-22T10:38:57;1015.9;;;14.6;43.5
45113;BME280;30873;53.908;27.576;2023-03-22T10:43:51;1015.8;;;15.2;42.6
45113;BME280;30873;53.908;27.576;2023-03-22T10:49:25;1015.8;;;15.3;42.2
45113;BME280;30873;53.908;27.576;2023-03-22T10:53:44;1015.7;;;15.5;41.4
45113;BME280;30873;53.908;27.576;2023-03-22T10:59:08;1015.8;;;16.3;40.5
45113;BME280;30873;53.908;27.576;2023-03-22T11:03:42;1015.7;;;17.1;38.5
45113;BME280;30873;53.908;27.576;2023-03-22T11:08:53;1015.7;;;16.8;38.5
45113;BME280;30873;53.908;27.576;2023-03-22T11:14:26;1015.6;;;17.5;37.7
45113;BME280;30873;53.908;27.576;2023-03-22T11:18:54;1015.5;;;19.1;34.5
45113;BME280;30873;53.908;27.576;2023-03-22T11:24:09;1015.5;;;20.6;32.9
45113;BME280;30873;53.908;27.576;2023-03-22T11:28:44;1015.4;;;21.6;32.2
45113;BME280;30873;53.908;27.576;2023-03-22T11:33:53;1015.3;;;22.8;30.5
45113;BME280;30873;53.908;27.576;2023-03-22T11:39:24;1015.2;;;21.5;31.6
45113;BME280;30873;53.908;27.576;2023-03-22T11:43:33;1015.1;;;22.7;30.4
45113;BME280;30873;53.908;27.576;2023-03-22T11:49:06;1015;;;23.7;28.8
45113;BME280;30873;53.908;27.576;2023-03-22T11:53:57;1015;;;24.1;28.1
45113;BME280;30873;53.908;27.576;2023-03-22T11:58:52;1015;;;24;27.8
45113;BME280;30873;53.908;27.576;2023-03-22T12:04:25;1014.8;;;24.5;26.9
45113;BME280;30873;53.908;27.576;2023-03-22T12:08:36;1014.9;;;25.2;26.1
45113;BME280;30873;53.908;27.576;2023-03-22T12:13:59;1014.8;;;26.8;24.6
45113;BME280;30873;53.908;27.576;2023-03-22T12:18:33;1014.8;;;25.9;25.4
45113;BME280;30873;53.908;27.576;2023-03-22T12:23:50;1014.6;;;26.1;24.9
45113;BME280;30873;53.908;27.576;2023-03-22T12:29:22;1014.5;;;25.9;24.5
45113;BME280;30873;53.908;27.576;2023-03-22T12:33:34;1014.5;;;24.7;25.8
45113;BME280;30873;53.908;27.576;2023-03-22T12:38:43;1014.3;;;26.8;24.2
45113;BME280;30873;53.908;27.576;2023-03-22T12:44:14;1014.3;;;27.6;23.2
45113;BME280;30873;53.908;27.576;2023-03-22T12:48:33;1014.3;;;27.4;23
45113;BME280;30873;53.908;27.576;2023-03-22T12:54:24;1014.2;;;27.3;22.8
45113;BME280;30873;53.908;27.576;2023-03-22T12:58:40;1014.1;;;27.1;23.1
45113;BME280;30873;53.908;27.576;2023-03-22T13:05:10;1014.1;;;27.4;22.6
45113;BME280;30873;53.908;27.576;2023-03-22T13:09:38;1014.1;;;26.2;23.5
45113;BME280;30873;53.908;27.576;2023-03-22T13:13:40;1014;;;27;22.9
45113;BME280;30873;53.908;27.576;2023-03-22T13:19:27;1013.9;;;27.8;22.1
45113;BME280;30873;53.908;27.576;2023-03-22T13:24:23;1013.8;;;28;21.7
45113;BME280;30873;53.908;27.576;2023-03-22T13:29:01;1013.8;;;27.7;21.9
45113;BME280;30873;53.908;27.576;2023-03-22T13:33:40;1013.9;;;27.6;22.1
45113;BME280;30873;53.908;27.576;2023-03-22T13:39:08;1013.9;;;28;21.8
45113;BME280;30873;53.908;27.576;2023-03-22T13:44:27;1013.8;;;27.8;21.9
45113;BME280;30873;53.908;27.576;2023-03-22T13:48:39;1013.7;;;28.3;21.3
45113;BME280;30873;53.908;27.576;2023-03-22T13:54:01;1013.6;;;27.7;21.7
45113;BME280;30873;53.908;27.576;2023-03-22T13:58:34;1013.6;;;28.2;21.4
45113;BME280;30873;53.908;27.576;2023-03-22T14:04:09;1013.5;;;28.4;21.4
45113;BME280;30873;53.908;27.576;2023-03-22T14:09:28;1013.5;;;28.4;21
45113;BME280;30873;53.908;27.576;2023-03-22T14:14:13;1013.5;;;28.3;21.2
45113;BME280;30873;53.908;27.576;2023-03-22T14:19:25;1013.5;;;27.9;21.4
45113;BME280;30873;53.908;27.576;2023-03-22T14:23:33;1013.4;;;27.5;21.6
45113;BME280;30873;53.908;27.576;2023-03-22T14:28:48;1013.4;;;26.5;22.5
45113;BME280;30873;53.908;27.576;2023-03-22T14:34:15;1013.4;;;25.8;23.2
45113;BME280;30873;53.908;27.576;2023-03-22T14:39:28;1013.3;;;25.8;23.1
45113;BME280;30873;53.908;27.576;2023-03-22T14:44:14;1013.3;;;26.2;22.6
45113;BME280;30873;53.908;27.576;2023-03-22T14:48:34;1013.2;;;25.7;23.1
45113;BME280;30873;53.908;27.576;2023-03-22T14:54:31;1013.2;;;25.3;23.6
45113;BME280;30873;53.908;27.576;2023-03-22T14:58:47;1013.3;;;25.2;23.5
45113;BME280;30873;53.908;27.576;2023-03-22T15:04:24;1013.3;;;25.1;23.9
45113;BME280;30873;53.908;27.576;2023-03-22T15:09:14;1013.3;;;24.7;24.4
45113;BME280;30873;53.908;27.576;2023-03-22T15:14:10;1013.3;;;24.8;24.6
45113;BME280;30873;53.908;27.576;2023-03-22T15:19:28;1013.3;;;24.2;25.2
45113;BME280;30873;53.908;27.576;2023-03-22T15:23:54;1013.2;;;21.6;28.3
45113;BME280;30873;53.908;27.576;2023-03-22T15:29:23;1013.3;;;19.3;31.4
45113;BME280;30873;53.908;27.576;2023-03-22T15:34:15;1013.3;;;18;33.7
45113;BME280;30873;53.908;27.576;2023-03-22T15:38:50;1013.3;;;17;35.5
45113;BME280;30873;53.908;27.576;2023-03-22T15:44:27;1013.3;;;16.3;37
45113;BME280;30873;53.908;27.576;2023-03-22T15:48:57;1013.3;;;15.7;38.4
45113;BME280;30873;53.908;27.576;2023-03-22T15:54:27;1013.3;;;15.3;39.4
45113;BME280;30873;53.908;27.576;2023-03-22T15:59:28;1013.2;;;15.1;40
45113;BME280;30873;53.908;27.576;2023-03-22T16:03:37;1013.2;;;14.9;40.9
45113;BME280;30873;53.908;27.576;2023-03-22T16:09:24;1013.2;;;14.7;41.4
45113;BME280;30873;53.908;27.576;2023-03-22T16:13:56;1013.2;;;14.5;41.8
45113;BME280;30873;53.908;27.576;2023-03-22T16:19:26;1013.2;;;14.2;42.5
45113;BME280;30873;53.908;27.576;2023-03-22T16:24:12;1013.2;;;14.1;42.9
45113;BME280;30873;53.908;27.576;2023-03-22T16:28:32;1013.2;;;13.9;43.4
45113;BME280;30873;53.908;27.576;2023-03-22T16:34:26;1013.1;;;13.8;43.6
45113;BME280;30873;53.908;27.576;2023-03-22T16:38:58;1013.1;;;13.7;44
45113;BME280;30873;53.908;27.576;2023-03-22T16:44:26;1013;;;13.6;44.5
45113;BME280;30873;53.908;27.576;2023-03-22T16:49:14;1013;;;13.6;44.7
45113;BME280;30873;53.908;27.576;2023-03-22T16:53:42;1013;;;13.6;44.8
45113;BME280;30873;53.908;27.576;2023-03-22T16:59:26;1013;;;13.6;44.9
45113;BME280;30873;53.908;27.576;2023-03-22T17:03:58;1013;;;13.7;44.9
45113;BME280;30873;53.908;27.576;2023-03-22T17:09:26;1013;;;13.7;44.9
45113;BME280;30873;53.908;27.576;2023-03-22T17:14:14;1013;;;13.7;45.3
45113;BME280;30873;53.908;27.576;2023-03-22T17:19:28;1013;;;13.6;45.3
45113;BME280;30873;53.908;27.576;2023-03-22T17:24:26;1013;;;13.6;45.7
45113;BME280;30873;53.908;27.576;2023-03-22T17:29:28;1012.9;;;13.4;46.2
45113;BME280;30873;53.908;27.576;2023-03-22T17:34:26;1012.9;;;13.2;46.8
45113;BME280;30873;53.908;27.576;2023-03-22T17:39:16;1013;;;13.1;47.1
45113;BME280;30873;53.908;27.576;2023-03-22T17:43:32;1013;;;13.1;47.2
45113;BME280;30873;53.908;27.576;2023-03-22T17:49:26;1013;;;13;47.5
45113;BME280;30873;53.908;27.576;2023-03-22T17:53:58;1013;;;12.9;47.8
45113;BME280;30873;53.908;27.576;2023-03-22T17:59:26;1012.9;;;12.7;48.2
45113;BME280;30873;53.908;27.576;2023-03-22T18:04:14;1013;;;12.7;48.4
45113;BME280;30873;53.908;27.576;2023-03-22T18:08:52;1013;;;12.6;48.5
45113;BME280;30873;53.908;27.576;2023-03-22T18:14:12;1013;;;12.5;48.9
45113;BME280;30873;53.908;27.576;2023-03-22T18:18:58;1013;;;12.5;49.1
45113;BME280;30873;53.908;27.576;2023-03-22T18:24:24;1013;;;12.5;49.2
45113;BME280;30873;53.908;27.576;2023-03-22T18:29:16;1012.9;;;12.5;49.1
45113;BME280;30873;53.908;27.576;2023-03-22T18:33:40;1012.8;;;12.5;49.2
45113;BME280;30873;53.908;27.576;2023-03-22T18:39:28;1012.8;;;12.5;49.2
45113;BME280;30873;53.908;27.576;2023-03-22T18:43:58;1012.8;;;12.4;49.4
45113;BME280;30873;53.908;27.576;2023-03-22T18:49:26;1012.7;;;12.3;49.7
45113;BME280;30873;53.908;27.576;2023-03-22T18:54:16;1012.8;;;12.2;49.8
45113;BME280;30873;53.908;27.576;2023-03-22T18:58:32;1012.8;;;12.2;49.9
45113;BME280;30873;53.908;27.576;2023-03-22T19:04:16;1012.8;;;12.1;50
45113;BME280;30873;53.908;27.576;2023-03-22T19:09:12;1012.8;;;12;50.3
45113;BME280;30873;53.908;27.576;2023-03-22T19:14:26;1012.8;;;11.9;50.6
45113;BME280;30873;53.908;27.576;2023-03-22T19:19:00;1012.8;;;11.8;50.8
45113;BME280;30873;53.908;27.576;2023-03-22T19:23:44;1012.8;;;11.7;51.3
45113;BME280;30873;53.908;27.576;2023-03-22T19:29:14;1012.8;;;11.6;51.6
45113;BME280;30873;53.908;27.576;2023-03-22T19:33:58;1012.8;;;11.5;51.8
45113;BME280;30873;53.908;27.576;2023-03-22T19:39:28;1012.9;;;11.5;52.1
45113;BME280;30873;53.908;27.576;2023-03-22T19:44:17;1012.9;;;11.4;52.5
45113;BME280;30873;53.908;27.576;2023-03-22T19:48:42;1012.8;;;11.3;52.8
45113;BME280;30873;53.908;27.576;2023-03-22T19:54:16;1012.9;;;11.2;53.1
45113;BME280;30873;53.908;27.576;2023-03-22T19:59:10;1012.8;;;11.1;53.3
45113;BME280;30873;53.908;27.576;2023-03-22T20:04:26;1012.8;;;11.1;53.6
45113;BME280;30873;53.908;27.576;2023-03-22T20:09:16;1012.7;;;11;53.7
45113;BME280;30873;53.908;27.576;2023-03-22T20:13:32;1012.7;;;11;54
45113;BME280;30873;53.908;27.576;2023-03-22T20:19:17;1012.7;;;11;54.1
45113;BME280;30873;53.908;27.576;2023-03-22T20:23:58;1012.7;;;10.9;54.3
45113;BME280;30873;53.908;27.576;2023-03-22T20:29:26;1012.7;;;10.9;54.5
45113;BME280;30873;53.908;27.576;2023-03-22T20:34:12;1012.6;;;11;54.4
45113;BME280;30873;53.908;27.576;2023-03-22T20:38:42;1012.6;;;11.1;54.3
45113;BME280;30873;53.908;27.576;2023-03-22T20:44:14;1012.5;;;11.3;53.9
45113;BME280;30873;53.908;27.576;2023-03-22T20:48:54;1012.6;;;11.4;53.6
45113;BME280;30873;53.908;27.576;2023-03-22T20:54:22;1012.5;;;11.6;53.4
45113;BME280;30873;53.908;27.576;2023-03-22T20:59:14;1012.5;;;11.7;53.2
45113;BME280;30873;53.908;27.576;2023-03-22T21:03:32;1012.5;;;11.7;53
45113;BME280;30873;53.908;27.576;2023-03-22T21:09:12;1012.5;;;11.7;53.2
45113;BME280;30873;53.908;27.576;2023-03-22T21:14:08;1012.5;;;11.7;53.2
45113;BME280;30873;53.908;27.576;2023-03-22T21:19:24;1012.4;;;11.7;53.1
45113;BME280;30873;53.908;27.576;2023-03-22T21:24:14;1012.4;;;11.7;53.3
45113;BME280;30873;53.908;27.576;2023-03-22T21:28:42;1012.4;;;11.7;53.4
45113;BME280;30873;53.908;27.576;2023-03-22T21:34:12;1012.4;;;11.7;53.5
45113;BME280;30873;53.908;27.576;2023-03-22T21:38:56;1012.4;;;11.6;53.7
45113;BME280;30873;53.908;27.576;2023-03-22T21:44:28;1012.3;;;11.7;53.7
45113;BME280;30873;53.908;27.576;2023-03-22T21:49:16;1012.3;;;11.8;53.7
45113;BME280;30873;53.908;27.576;2023-03-22T21:53:44;1012.3;;;11.8;53.6
45113;BME280;30873;53.908;27.576;2023-03-22T21:59:14;1012.3;;;11.8;53.7
45113;BME280;30873;53.908;27.576;2023-03-22T22:03:58;1012.3;;;11.8;53.9
45113;BME280;30873;53.908;27.576;2023-03-22T22:09:26;1012.3;;;11.7;54.1
45113;BME280;30873;53.908;27.576;2023-03-22T22:14:16;1012.3;;;11.7;54.3
45113;BME280;30873;53.908;27.576;2023-03-22T22:18:42;1012.3;;;11.7;54.3
45113;BME280;30873;53.908;27.576;2023-03-22T22:24:16;1012.3;;;11.7;54.5
45113;BME280;30873;53.908;27.576;2023-03-22T22:28:58;1012.3;;;11.7;54.7
45113;BME280;30873;53.908;27.576;2023-03-22T22:34:26;1012.2;;;11.7;54.8
45113;BME280;30873;53.908;27.576;2023-03-22T22:38:35;1012.2;;;11.6;55.2
45113;BME280;30873;53.908;27.576;2023-03-22T22:43:32;1012.3;;;11.6;55.3
45113;BME280;30873;53.908;27.576;2023-03-22T22:49:28;1012.2;;;11.6;55.4
45113;BME280;30873;53.908;27.576;2023-03-22T22:53:59;1012.2;;;11.6;55.6
45113;BME280;30873;53.908;27.576;2023-03-22T22:59:26;1012.1;;;11.5;56
45113;BME280;30873;53.908;27.576;2023-03-22T23:04:16;1012.1;;;11.5;56.2
45113;BME280;30873;53.908;27.576;2023-03-22T23:08:53;1012;;;11.6;56.3
45113;BME280;30873;53.908;27.576;2023-03-22T23:14:16;1011.9;;;11.6;56.3
45113;BME280;30873;53.908;27.576;2023-03-22T23:18:58;1011.9;;;11.7;56.4
45113;BME280;30873;53.908;27.576;2023-03-22T23:24:28;1011.9;;;11.6;56.9
45113;BME280;30873;53.908;27.576;2023-03-22T23:29:26;1011.9;;;11.6;57.6
45113;BME280;30873;53.908;27.576;2023-03-22T23:33:43;1011.8;;;11.6;58
45113;BME280;30873;53.908;27.576;2023-03-22T23:38:34;1011.8;;;11.5;58.8
45113;BME280;30873;53.908;27.576;2023-03-22T23:43:56;1011.8;;;11.5;59.3
45113;BME280;30873;53.908;27.576;2023-03-22T23:49:26;1011.8;;;11.6;59.6
45113;BME280;30873;53.908;27.576;2023-03-22T23:54:14;1011.7;;;11.5;59.9
45113;BME280;30873;53.908;27.576;2023-03-22T23:58:51;1011.7;;;11.5;60.3
